• Join FlightAware (Why Join?)
  • Login
  • US Flag 
10:24PM EDT


 

Airport Tracker/Info


-or-


 

Live Flight TrackerFlight Track Log ✈ N75XP ✈ 04-Jul-2013 ✈ KLVK - KUAO

Flight Track Log - Related Links

Times and Time Zones

All times are in EDT time to prevent confusion due to time zone crossing. See the N75XP flight status page for this flight to view local times or setup timezone preferences in your user account.

Time Position Orientation Groundspeed Altitude Reporting Facility
EDT Latitude Longitude Course Direction KTS MPH feet Rate Location/Type
06:34PM 37.7000 -121.8833 288° West 202 232 1,800  Level Northern Cal TRACON
06:35PM 37.7500 -121.9167 332° Northwest 276 318 3,500 2,160 Climbing Northern Cal TRACON
06:36PM 37.8000 -121.8167 58° Northeast 292 336 6,200 2,640 Climbing Northern Cal TRACON
06:37PM 38.4845 -121.8335 353° North  Level FlightAware Approximate
06:37PM 37.8333 -121.7333 63° Northeast 305 351 8,800  Level Northern Cal TRACON
06:37PM 37.9167 -121.7000 18° North 328 377 9,900 1,860 Climbing Northern Cal TRACON
06:38PM 38.0167 -121.6833 North 356 410 12,400 2,460 Climbing Northern Cal TRACON
06:39PM 38.1000 -121.7000 351° North 364 419 14,900 2,520 Climbing Northern Cal TRACON
06:41PM 38.2167 -121.7167 354° North 381 438 17,800 2,160 Climbing Northern Cal TRACON
06:42PM 38.3319 -121.7358 353° North 392 451 19,800 1,980 Climbing Oakland Center
06:43PM 38.4472 -121.7536 353° North 414 476 22,200 2,160 Climbing Oakland Center
06:44PM 38.5650 -121.7700 354° North 420 483 24,200 1,860 Climbing Oakland Center
06:45PM 38.6886 -121.7886 353° North 440 506 26,100 1,860 Climbing Oakland Center
06:46PM 38.8394 -121.8097 354° North 449 517 28,000 1,620 Climbing Oakland Center
06:47PM 38.9711 -121.8289 354° North 468 539 29,400 1,380 Climbing Oakland Center
06:48PM 39.1042 -121.8469 354° North 478 550 30,900 1,500 Climbing Oakland Center
06:49PM 39.2367 -121.8675 353° North 478 550 32,500 1,620 Climbing Oakland Center
06:50PM 39.3669 -121.8869 353° North 471 542 34,200 1,380 Climbing Oakland Center
06:51PM 39.4956 -121.9061 353° North 465 535 35,400 1,080 Climbing Oakland Center
06:52PM 39.6083 -121.9236 353° North 463 533 36,500 1,200 Climbing Oakland Center
06:53PM 39.7600 -121.9464 353° North 459 528 37,900 1,140 Climbing Oakland Center
06:54PM 39.8836 -121.9650 353° North 452 520 38,900 840 Climbing Oakland Center
06:55PM 40.0064 -121.9828 354° North 448 516 39,700 540 Climbing Oakland Center
06:56PM 40.1297 -122.0011 354° North 453 521 40,000 120 Climbing Oakland Center
06:57PM 40.2567 -122.0192 354° North 465 535 40,000  Level Oakland Center
06:58PM 40.3861 -122.0400 353° North 475 547 40,000  Level Oakland Center
06:59PM 40.5178 -122.0617 353° North 479 551 40,000  Level Oakland Center
07:00PM 40.6489 -122.0819 353° North 478 550 40,000  Level Oakland Center
07:01PM 40.8072 -122.1058 353° North 478 550 40,000  Level Oakland Center
07:02PM 40.9392 -122.1258 353° North 479 551 40,000  Level Oakland Center
07:03PM 41.0717 -122.1469 353° North 481 554 40,000  Level Oakland Center
07:04PM 41.2039 -122.1700 353° North 481 554 40,000  Level Oakland Center
07:05PM 41.3358 -122.1900 354° North 479 551 40,000  Level Oakland Center
07:06PM 41.4558 -122.2092 353° North 480 552 40,000  Level Seattle Center
07:07PM 41.5886 -122.2342 352° North 480 552 40,000  Level Seattle Center
07:08PM 41.7211 -122.2592 352° North 479 551 40,000  Level Seattle Center
07:09PM 41.8539 -122.2850 352° North 479 551 40,000  Level Seattle Center
07:10PM 41.9892 -122.3053 354° North 482 555 40,000  Level Seattle Center
07:11PM 42.1250 -122.3214 355° North 484 557 40,000  Level Seattle Center
07:12PM 42.2589 -122.3400 354° North 481 554 40,000  Level Seattle Center
07:13PM 42.3939 -122.3619 353° North 484 557 40,000  Level Seattle Center
07:14PM 42.5275 -122.3833 353° North 484 557 40,000  Level Seattle Center
07:15PM 42.6625 -122.4053 353° North 487 560 40,000  Level Seattle Center
07:16PM 42.8131 -122.4286 354° North 489 563 40,000  Level Seattle Center
07:17PM 42.9458 -122.4508 353° North 485 558 40,000  Level Seattle Center
07:18PM 43.0792 -122.4731 353° North 484 557 40,000 -60 Level Seattle Center
07:19PM 43.2131 -122.4950 353° North 486 559 39,900 -840 Descending Seattle Center
07:20PM 43.3467 -122.5186 353° North 487 560 38,400 -2,100 Descending Seattle Center
07:21PM 43.4756 -122.5403 353° North 471 542 35,700 -2,700 Descending Seattle Center
07:22PM 43.6033 -122.5619 353° North 465 535 33,000 -2,700 Descending Seattle Center
07:23PM 43.7281 -122.5828 353° North 455 524 30,300 -2,700 Descending Seattle Center
07:24PM 43.8514 -122.6014 354° North 450 518 27,600 -2,700 Descending Seattle Center
07:25PM 43.9692 -122.6214 353° North 435 501 24,900 -2,700 Descending Seattle Center
07:26PM 44.0842 -122.6419 353° North 422 486 22,200 -2,700 Descending Seattle Center
07:27PM 44.1969 -122.6614 353° North 414 476 19,500 -2,640 Descending Seattle Center
07:28PM 44.3258 -122.6839 353° North 394 453 16,900 -2,280 Descending Seattle Center
07:29PM 44.4264 -122.7006 353° North 378 435 14,900 -1,920 Descending Seattle Center
07:30PM 44.5233 -122.7169 353° North 361 415 13,100 -1,800 Descending Seattle Center
07:31PM 44.6142 -122.7333 353° North 342 394 11,300 -1,740 Descending Seattle Center
07:32PM 44.6994 -122.7486 353° North 322 371 9,600 -1,680 Descending Seattle Center
07:33PM 44.7800 -122.7625 353° North 309 356 8,000 -1,440 Descending Seattle Center
07:34PM 44.8519 -122.7731 354° North 285 328 6,800 -1,200 Descending Seattle Center
07:35PM 44.9192 -122.7692 North 249 287 5,600 -1,260 Descending Seattle Center
07:36PM 44.9825 -122.7869 349° North 240 276 4,300 -1,200 Descending Seattle Center
07:37PM 45.0472 -122.8019 351° North 238 274 3,200 -1,140 Descending Seattle Center